Time;durP1;ratioP1;P1;durP2;ratioP2;P2;SDS_P1;SDS_P2;PMS_P1;PMS_P2;Temp;Humidity;BMP_temperature;BMP_pressure;BME280_temperature;BME280_humidity;BME280_pressure;Samples;Min_cycle;Max_cycle;Signal;HPM_P1;HPM_P2
2022/01/14 00:02:23;;;;;;;14.90;8.70;;;;;;;1.96;57.32;101734.66;105261;1276;68999;-71
2022/01/14 00:04:52;;;;;;;14.40;8.40;;;;;;;2.00;57.15;101729.77;105354;1273;71447;-76
2022/01/14 00:07:21;;;;;;;15.30;8.10;;;;;;;1.99;56.76;101726.67;105296;1272;59633;-75
2022/01/14 00:09:50;;;;;;;14.00;7.50;;;;;;;1.99;57.12;101717.92;105300;1273;60779;-74
2022/01/14 00:12:25;;;;;;;17.00;8.30;;;;;;;1.98;56.80;101719.84;105249;1274;72255;-74
2022/01/14 00:15:01;;;;;;;13.70;8.40;;;;;;;1.92;56.74;101719.45;105298;1273;72771;-73
2022/01/14 00:17:30;;;;;;;16.60;8.50;;;;;;;1.93;57.18;101716.33;105407;1273;68527;-76
2022/01/14 00:19:59;;;;;;;16.00;8.20;;;;;;;1.94;57.11;101718.55;105217;1274;73605;-74
2022/01/14 00:22:29;;;;;;;14.40;8.20;;;;;;;1.94;57.09;101717.69;105335;1273;60455;-74
2022/01/14 00:33:10;;;;;;;18.10;9.50;;;;;;;1.78;56.69;101720.58;105341;1273;69862;-77
2022/01/14 00:35:41;;;;;;;17.40;9.10;;;;;;;1.81;57.59;101723.77;105188;1276;74956;-71
2022/01/14 00:38:12;;;;;;;15.30;8.40;;;;;;;1.84;57.30;101718.23;105208;1273;60635;-72
2022/01/14 00:40:42;;;;;;;16.20;8.70;;;;;;;1.85;57.16;101718.70;105203;1273;61399;-73
2022/01/14 00:43:12;;;;;;;13.30;6.80;;;;;;;1.82;56.96;101716.38;105305;1273;75971;-71
2022/01/14 00:45:42;;;;;;;13.80;7.30;;;;;;;1.78;56.89;101712.52;105344;1273;72158;-74
2022/01/14 00:48:10;;;;;;;16.00;8.50;;;;;;;1.76;56.86;101705.49;105195;1273;70284;-76
2022/01/14 00:50:44;;;;;;;14.50;8.00;;;;;;;1.75;57.28;101701.23;105416;1273;74802;-75
2022/01/14 00:53:13;;;;;;;17.50;8.00;;;;;;;1.78;57.41;101701.50;105395;1273;60327;-73
2022/01/14 00:55:53;;;;;;;17.10;7.80;;;;;;;1.81;57.47;101702.48;105191;1275;62322;-72
2022/01/14 01:01:10;;;;;;;13.00;7.80;;;;;;;1.86;57.83;101694.98;105357;1273;73203;-72
2022/01/14 01:03:39;;;;;;;15.30;7.60;;;;;;;1.86;57.12;101682.46;105276;1273;68742;-74
2022/01/14 01:06:09;;;;;;;12.70;7.50;;;;;;;1.81;57.12;101675.69;104798;1273;407203;-74
2022/01/14 01:08:38;;;;;;;15.00;7.60;;;;;;;1.78;57.27;101670.08;105233;1273;61033;-74
2022/01/14 01:11:10;;;;;;;14.40;8.40;;;;;;;1.86;57.83;101658.41;105148;1275;59480;-71
2022/01/14 01:13:47;;;;;;;16.00;8.00;;;;;;;1.90;57.85;101658.31;105095;1273;72841;-74
2022/01/14 01:16:16;;;;;;;15.90;7.70;;;;;;;1.86;57.15;101649.30;105176;1273;72456;-74
2022/01/14 01:18:45;;;;;;;13.10;7.40;;;;;;;1.87;57.10;101647.04;105212;1273;69532;-72
2022/01/14 01:21:14;;;;;;;12.40;7.00;;;;;;;1.86;57.05;101644.48;105227;1273;71755;-73
2022/01/14 01:23:43;;;;;;;13.30;7.20;;;;;;;1.83;57.02;101638.89;105207;1273;59632;-74
2022/01/14 01:26:24;;;;;;;12.10;6.40;;;;;;;1.82;56.52;101636.15;105269;1275;60790;-72
2022/01/14 01:29:17;;;;;;;14.00;7.40;;;;;;;1.84;56.16;101634.39;105348;1273;72669;-74
2022/01/14 01:31:46;;;;;;;11.70;6.90;;;;;;;1.82;55.91;101640.10;105337;1273;73166;-72
2022/01/14 01:34:22;;;;;;;12.30;6.90;;;;;;;1.83;55.80;101640.61;105356;1273;68873;-74
2022/01/14 01:36:56;;;;;;;11.90;6.90;;;;;;;1.81;56.15;101642.69;105303;1273;72444;-74
2022/01/14 01:39:30;;;;;;;10.70;6.30;;;;;;;1.80;56.54;101631.91;105304;1273;59118;-72
2022/01/14 01:42:09;;;;;;;13.50;7.00;;;;;;;1.76;56.85;101624.77;105306;1273;60681;-73
2022/01/14 01:44:40;;;;;;;12.00;6.30;;;;;;;1.73;56.52;101618.14;105195;1273;74503;-74
2022/01/14 01:47:09;;;;;;;15.20;7.30;;;;;;;1.69;56.44;101615.81;105194;1273;72456;-72
2022/01/14 01:49:39;;;;;;;13.00;6.70;;;;;;;1.67;56.64;101615.34;105259;1273;71625;-75
2022/01/14 01:52:08;;;;;;;13.40;7.20;;;;;;;1.64;56.80;101617.30;105188;1273;72682;-74
2022/01/14 01:54:37;;;;;;;14.90;7.00;;;;;;;1.60;56.99;101611.54;105132;1273;59674;-73
2022/01/14 01:57:06;;;;;;;11.90;7.00;;;;;;;1.59;56.98;101605.90;105142;1273;59076;-74
2022/01/14 01:59:36;;;;;;;16.20;7.80;;;;;;;1.53;56.86;101607.73;105152;1273;75526;-72
2022/01/14 02:02:05;;;;;;;12.10;6.10;;;;;;;1.42;56.85;101598.70;105005;1273;71326;-73
2022/01/14 02:04:34;;;;;;;13.10;6.20;;;;;;;1.45;57.02;101598.29;105078;1273;69242;-72
2022/01/14 02:07:04;;;;;;;14.90;7.00;;;;;;;1.47;57.27;101588.82;106114;1272;71410;-72
2022/01/14 02:09:33;;;;;;;12.20;6.40;;;;;;;1.45;57.31;101587.83;105234;1272;60611;-72
2022/01/14 02:12:09;;;;;;;13.60;7.30;;;;;;;1.42;57.32;101585.83;105995;1273;61244;-72
2022/01/14 02:23:01;;;;;;;19.30;7.60;;;;;;;1.27;57.34;101577.89;105352;1273;74474;-75
2022/01/14 02:25:31;;;;;;;19.50;8.10;;;;;;;1.22;57.57;101575.59;105361;1272;61167;-77
2022/01/14 02:28:07;;;;;;;16.60;7.80;;;;;;;1.16;57.20;101562.17;105452;1273;59763;-76
2022/01/14 02:30:40;;;;;;;15.50;8.20;;;;;;;1.12;57.15;101561.38;105380;1273;76002;-76
2022/01/14 02:33:11;;;;;;;14.70;8.00;;;;;;;1.05;57.61;101560.48;105430;1272;73065;-73
2022/01/14 02:35:43;;;;;;;14.90;7.50;;;;;;;0.96;57.71;101553.27;105485;1273;69817;-74
2022/01/14 02:38:15;;;;;;;14.30;6.80;;;;;;;0.95;58.18;101545.91;105327;1276;73126;-73
2022/01/14 02:40:45;;;;;;;11.90;5.80;;;;;;;0.90;57.79;101550.80;105440;1273;60768;-72
2022/01/14 02:43:16;;;;;;;15.60;7.80;;;;;;;0.85;58.03;101541.31;105418;1273;60802;-73
2022/01/14 02:45:51;;;;;;;16.40;8.80;;;;;;;0.77;58.17;101542.66;105403;1273;72049;-74
2022/01/14 02:48:27;;;;;;;17.20;8.10;;;;;;;0.67;58.43;101540.44;105383;1273;70659;-71
2022/01/14 02:56:13;;;;;;;13.70;6.30;;;;;;;0.41;59.50;101538.15;105382;1272;59962;-75
2022/01/14 02:58:43;;;;;;;14.70;7.40;;;;;;;0.30;59.11;101539.88;105399;1273;61305;-74
2022/01/14 03:01:22;;;;;;;14.10;6.90;;;;;;;0.22;59.17;101538.64;105397;1273;72555;-72
2022/01/14 03:03:58;;;;;;;13.20;6.30;;;;;;;0.14;58.96;101544.42;105389;1271;71284;-72
2022/01/14 03:06:28;;;;;;;13.70;7.00;;;;;;;0.07;58.87;101538.88;105245;1273;70687;-73
2022/01/14 03:08:58;;;;;;;12.10;6.30;;;;;;;0.03;58.70;101532.10;105343;1273;71028;-72
2022/01/14 03:11:39;;;;;;;13.40;5.90;;;;;;;-0.01;58.79;101527.20;105351;1273;59714;-73
2022/01/14 03:14:10;;;;;;;9.50;4.80;;;;;;;-0.06;58.71;101521.62;105377;1273;59840;-73
2022/01/14 03:16:41;;;;;;;12.80;6.30;;;;;;;-0.12;58.90;101516.92;105352;1273;75363;-73
2022/01/14 03:19:17;;;;;;;12.10;5.80;;;;;;;-0.20;58.88;101513.61;105358;1273;70885;-74
2022/01/14 03:21:49;;;;;;;9.80;6.00;;;;;;;-0.26;59.03;101512.85;105355;1272;69834;-75
2022/01/14 03:25:35;;;;;;;16.00;6.60;;;;;;;-0.37;59.55;101505.48;105274;1273;72452;-71
2022/01/14 03:27:09;;;;;;;12.00;6.00;;;;;;;-0.48;59.83;101505.11;105352;1273;61741;-71
2022/01/14 03:29:38;;;;;;;12.90;6.60;;;;;;;-0.55;60.94;101508.45;105315;1273;60177;-75
2022/01/14 03:32:09;;;;;;;12.70;6.40;;;;;;;-0.64;60.74;101500.04;105342;1272;72068;-73
2022/01/14 03:34:38;;;;;;;12.70;6.40;;;;;;;-0.71;60.53;101493.98;105158;1273;73356;-73
2022/01/14 03:37:07;;;;;;;9.50;4.50;;;;;;;-0.80;60.55;101492.05;105335;1273;70272;-71
2022/01/14 03:39:36;;;;;;;14.10;6.80;;;;;;;-0.92;61.32;101486.20;105289;1272;72491;-72
2022/01/14 03:42:06;;;;;;;9.80;4.90;;;;;;;-1.10;62.18;101483.68;105261;1273;59936;-72
2022/01/14 03:44:35;;;;;;;14.90;7.10;;;;;;;-1.23;62.07;101480.42;105315;1273;59783;-73
2022/01/14 03:47:05;;;;;;;10.90;5.70;;;;;;;-1.34;62.23;101479.52;105213;1273;72650;-73
2022/01/14 03:49:34;;;;;;;7.10;2.90;;;;;;;-1.48;63.33;101477.10;105139;1273;73399;-73
2022/01/14 03:52:04;;;;;;;10.40;5.30;;;;;;;-1.60;63.74;101477.73;105293;1272;69969;-75
2022/01/14 03:54:33;;;;;;;11.60;6.20;;;;;;;-1.72;63.75;101475.46;105350;1273;73381;-75
2022/01/14 03:57:02;;;;;;;20.40;7.20;;;;;;;-1.86;64.43;101471.15;105325;1271;60655;-77
2022/01/14 03:59:31;;;;;;;15.50;7.30;;;;;;;-1.96;65.02;101471.23;105347;1272;62274;-77
2022/01/14 04:02:00;;;;;;;17.70;7.30;;;;;;;-2.02;63.89;101471.97;105293;1273;73460;-76
2022/01/14 04:04:30;;;;;;;22.20;7.70;;;;;;;-2.09;65.91;101469.98;105322;1273;70539;-76
2022/01/14 04:06:59;;;;;;;17.50;6.90;;;;;;;-2.16;67.02;101465.60;105334;1273;69301;-78
2022/01/14 04:09:29;;;;;;;12.40;4.20;;;;;;;-2.23;65.31;101459.67;105338;1273;71558;-78
2022/01/14 04:12:01;;;;;;;18.90;7.90;;;;;;;-2.28;65.98;101453.41;105314;1273;60763;-77
2022/01/14 04:17:01;;;;;;;18.30;7.50;;;;;;;-2.37;66.13;101440.00;105297;1273;72452;-74
2022/01/14 04:19:30;;;;;;;15.80;7.80;;;;;;;-2.40;66.68;101425.16;105338;1273;71592;-74
2022/01/14 04:22:00;;;;;;;14.60;7.90;;;;;;;-2.42;65.93;101422.11;105248;1273;72180;-74
2022/01/14 04:24:28;;;;;;;16.60;8.70;;;;;;;-2.47;68.09;101422.15;105318;1273;74064;-72
2022/01/14 04:26:57;;;;;;;24.40;12.20;;;;;;;-2.52;68.41;101416.56;105281;1273;61140;-72
2022/01/14 04:29:26;;;;;;;20.30;10.00;;;;;;;-2.57;67.56;101421.36;105349;1273;62761;-73
2022/01/14 04:31:55;;;;;;;19.50;8.40;;;;;;;-2.65;66.67;101419.90;105346;1273;75667;-73
2022/01/14 04:34:25;;;;;;;15.40;7.50;;;;;;;-2.72;68.37;101423.52;105437;1270;73305;-74
2022/01/14 04:36:54;;;;;;;19.00;8.20;;;;;;;-2.75;68.11;101426.09;105387;1270;70850;-73
2022/01/14 04:39:23;;;;;;;18.60;8.10;;;;;;;-2.78;68.47;101430.70;105409;1270;74715;-73
2022/01/14 04:41:52;;;;;;;21.40;9.80;;;;;;;-2.80;69.43;101428.34;105402;1270;60355;-72
2022/01/14 04:44:21;;;;;;;12.40;5.60;;;;;;;-2.84;68.29;101422.90;105379;1270;60992;-71
2022/01/14 04:47:01;;;;;;;7.00;4.20;;;;;;;-2.85;68.16;101412.85;105325;1270;76212;-72
2022/01/14 04:49:31;;;;;;;11.90;5.50;;;;;;;-2.87;68.37;101413.89;105238;1270;73243;-75
2022/01/14 04:52:01;;;;;;;18.70;8.20;;;;;;;-2.90;68.09;101412.53;105233;1270;68804;-78
2022/01/14 04:54:30;;;;;;;17.60;8.70;;;;;;;-2.94;67.83;101407.96;105177;1270;74165;-74
2022/01/14 04:56:59;;;;;;;19.20;9.70;;;;;;;-2.99;67.76;101409.35;105118;1270;60778;-76
2022/01/14 04:59:28;;;;;;;17.20;8.50;;;;;;;-3.04;69.42;101413.98;105259;1270;61628;-76
2022/01/14 05:01:58;;;;;;;19.20;8.90;;;;;;;-3.06;70.15;101407.86;105203;1273;75301;-75
2022/01/14 05:04:28;;;;;;;16.50;8.60;;;;;;;-3.10;69.19;101409.58;105235;1270;71001;-77
2022/01/14 05:07:01;;;;;;;15.10;6.90;;;;;;;-3.15;70.11;101411.14;105280;1270;68103;-73
2022/01/14 05:09:37;;;;;;;12.50;5.60;;;;;;;-3.18;68.85;101408.77;105233;1270;73264;-73
2022/01/14 05:12:10;;;;;;;9.90;5.00;;;;;;;-3.23;68.71;101407.59;105236;1270;63480;-75
2022/01/14 05:14:39;;;;;;;13.10;5.70;;;;;;;-3.23;68.66;101410.67;105275;1273;61449;-76
2022/01/14 05:17:08;;;;;;;18.30;7.60;;;;;;;-3.27;68.82;101410.67;105181;1270;74248;-77
2022/01/14 05:19:37;;;;;;;16.80;8.60;;;;;;;-3.35;69.26;101416.01;105236;1271;73084;-74
2022/01/14 05:22:07;;;;;;;21.30;9.70;;;;;;;-3.43;69.01;101419.94;105228;1270;72125;-74
2022/01/14 05:24:35;;;;;;;23.00;9.10;;;;;;;-3.50;69.29;101417.76;105182;1270;74064;-76
2022/01/14 05:27:05;;;;;;;18.50;7.20;;;;;;;-3.53;69.64;101410.27;105245;1270;64485;-69
2022/01/14 05:29:34;;;;;;;14.80;7.40;;;;;;;-3.55;69.83;101408.06;105226;1270;61506;-69
2022/01/14 05:32:05;;;;;;;18.60;8.30;;;;;;;-3.62;69.72;101400.94;105188;1273;73500;-72
2022/01/14 05:34:36;;;;;;;12.00;6.10;;;;;;;-3.66;69.66;101397.71;105216;1273;70037;-71
2022/01/14 05:37:05;;;;;;;11.40;5.30;;;;;;;-3.68;70.40;101395.49;105227;1273;70119;-69
2022/01/14 05:39:36;;;;;;;10.70;5.50;;;;;;;-3.71;70.58;101398.91;105184;1273;72518;-70
2022/01/14 05:42:10;;;;;;;16.90;8.00;;;;;;;-3.70;70.80;101398.91;105201;1273;60631;-70
2022/01/14 05:44:39;;;;;;;20.20;10.70;;;;;;;-3.76;70.58;101393.65;105283;1273;61696;-73
2022/01/14 05:47:08;;;;;;;24.70;9.90;;;;;;;-3.80;70.81;101392.98;105120;1273;75507;-72
2022/01/14 05:49:37;;;;;;;18.60;8.20;;;;;;;-3.82;72.46;101385.48;105350;1272;72665;-71
2022/01/14 05:52:06;;;;;;;20.30;9.90;;;;;;;-3.84;70.62;101373.94;105311;1273;70939;-70
2022/01/14 05:54:35;;;;;;;21.90;10.70;;;;;;;-3.83;71.06;101375.80;105289;1273;74501;-70
2022/01/14 05:57:05;;;;;;;24.00;13.50;;;;;;;-3.83;72.17;101373.42;105299;1273;59605;-70
2022/01/14 05:59:34;;;;;;;34.50;16.10;;;;;;;-3.80;73.23;101364.91;105250;1273;59554;-70
2022/01/14 06:02:04;;;;;;;30.70;15.50;;;;;;;-3.80;72.74;101352.30;105305;1273;75573;-69
2022/01/14 06:04:33;;;;;;;19.30;9.40;;;;;;;-3.81;72.16;101350.43;105285;1273;71960;-70
2022/01/14 06:07:03;;;;;;;27.40;11.90;;;;;;;-3.82;70.88;101345.67;105269;1273;71600;-70
2022/01/14 06:09:32;;;;;;;35.60;16.00;;;;;;;-3.81;72.27;101345.50;105200;1273;71305;-69
2022/01/14 06:12:02;;;;;;;40.50;16.60;;;;;;;-3.79;72.92;101341.74;105341;1273;63333;-69
2022/01/14 06:14:31;;;;;;;41.60;18.10;;;;;;;-3.77;72.10;101336.11;105109;1276;59744;-67
2022/01/14 06:17:00;;;;;;;39.50;18.50;;;;;;;-3.76;72.24;101338.49;105288;1273;72180;-72
2022/01/14 06:19:29;;;;;;;35.30;15.50;;;;;;;-3.74;72.10;101326.75;105273;1273;71027;-72
2022/01/14 06:21:58;;;;;;;30.90;14.80;;;;;;;-3.68;72.55;101327.74;105193;1273;71337;-71
2022/01/14 06:24:27;;;;;;;29.30;14.60;;;;;;;-3.65;70.61;101322.11;105013;1273;74344;-70
2022/01/14 06:26:56;;;;;;;27.90;12.00;;;;;;;-3.57;70.40;101316.97;105111;1274;60064;-71
2022/01/14 06:29:25;;;;;;;18.90;8.90;;;;;;;-3.48;70.44;101312.34;105200;1271;60646;-72
2022/01/14 06:31:55;;;;;;;25.60;13.70;;;;;;;-3.40;70.53;101305.65;105241;1273;74899;-77
2022/01/14 06:34:23;;;;;;;36.90;15.90;;;;;;;-3.35;71.06;101303.74;105220;1272;72858;-68
2022/01/14 06:36:52;;;;;;;33.10;14.80;;;;;;;-3.30;70.92;101300.98;105260;1271;69848;-71
2022/01/14 06:39:21;;;;;;;32.80;15.80;;;;;;;-3.26;71.11;101294.33;105187;1270;71359;-70
2022/01/14 06:41:50;;;;;;;25.70;13.10;;;;;;;-3.21;70.13;101288.67;105172;1273;60600;-75
2022/01/14 06:44:19;;;;;;;21.80;12.20;;;;;;;-3.16;70.09;101278.92;105301;1271;61124;-74
2022/01/14 06:46:48;;;;;;;32.80;13.90;;;;;;;-3.13;69.97;101275.67;105333;1270;72667;-70
2022/01/14 06:49:18;;;;;;;24.20;10.70;;;;;;;-3.11;69.86;101274.29;105347;1270;70886;-74
2022/01/14 06:51:47;;;;;;;33.10;14.00;;;;;;;-3.07;70.03;101265.39;105581;1270;70523;-74
2022/01/14 06:54:16;;;;;;;29.20;14.50;;;;;;;-2.99;69.99;101256.48;105527;1270;73437;-75
2022/01/14 06:56:45;;;;;;;30.50;16.20;;;;;;;-2.91;69.87;101244.99;105516;1270;61253;-74
2022/01/14 06:59:14;;;;;;;32.90;15.30;;;;;;;-2.85;69.72;101235.56;105442;1270;59455;-74
2022/01/14 07:01:43;;;;;;;25.40;13.90;;;;;;;-2.77;69.25;101234.80;105289;1273;73634;-76
2022/01/14 07:04:12;;;;;;;36.50;15.50;;;;;;;-2.71;69.40;101229.48;105292;1270;70474;-74
2022/01/14 07:06:41;;;;;;;32.40;15.30;;;;;;;-2.64;69.01;101221.57;105325;1271;68835;-76
2022/01/14 07:09:10;;;;;;;30.10;15.40;;;;;;;-2.59;68.90;101216.73;105323;1270;71679;-73
2022/01/14 07:11:40;;;;;;;37.80;16.90;;;;;;;-2.53;68.76;101208.66;105233;1274;59649;-73
2022/01/14 07:14:09;;;;;;;24.40;12.40;;;;;;;-2.48;68.56;101203.15;105314;1270;61425;-74
2022/01/14 07:16:38;;;;;;;18.40;7.50;;;;;;;-2.39;67.83;101201.69;105300;1273;74300;-74
2022/01/14 07:19:07;;;;;;;27.00;12.90;;;;;;;-2.32;67.68;101202.98;105259;1273;73091;-77
2022/01/14 07:21:37;;;;;;;25.10;12.30;;;;;;;-2.31;67.84;101207.23;105243;1273;67991;-73
2022/01/14 07:24:06;;;;;;;33.70;15.40;;;;;;;-2.27;67.78;101204.79;105335;1270;73388;-75
2022/01/14 07:26:36;;;;;;;28.90;16.20;;;;;;;-2.17;67.73;101202.80;105349;1272;59818;-73
2022/01/14 07:29:04;;;;;;;32.40;15.90;;;;;;;-2.08;67.90;101203.04;105265;1273;60671;-73
2022/01/14 07:31:34;;;;;;;49.40;21.90;;;;;;;-1.95;67.82;101193.11;105314;1271;75495;-74
2022/01/14 07:34:03;;;;;;;30.70;14.90;;;;;;;-1.81;67.62;101181.84;105411;1273;70659;-74
2022/01/14 07:36:37;;;;;;;36.20;17.40;;;;;;;-1.68;67.13;101179.27;105359;1273;71108;-75
2022/01/14 07:39:06;;;;;;;25.40;13.10;;;;;;;-1.61;66.58;101165.85;105403;1273;74506;-72
2022/01/14 07:41:35;;;;;;;25.20;13.30;;;;;;;-1.46;66.61;101168.01;105376;1270;60277;-75
2022/01/14 07:44:04;;;;;;;37.60;17.80;;;;;;;-1.37;66.41;101170.43;105442;1270;60170;-73
2022/01/14 07:46:35;;;;;;;29.10;14.70;;;;;;;-1.27;65.77;101165.14;105362;1270;76112;-76
2022/01/14 07:49:04;;;;;;;28.50;12.90;;;;;;;-1.16;65.66;101164.45;105306;1271;73608;-71
2022/01/14 07:51:32;;;;;;;23.90;12.80;;;;;;;-1.07;65.34;101155.23;105303;1273;70300;-73
2022/01/14 07:54:05;;;;;;;35.30;14.60;;;;;;;-0.95;65.43;101152.30;105208;1270;74040;-71
2022/01/14 07:56:45;;;;;;;33.60;16.10;;;;;;;-0.79;65.63;101156.79;105224;1273;61453;-72
2022/01/14 07:59:18;;;;;;;24.50;12.90;;;;;;;-0.64;65.84;101155.47;105203;1273;59896;-76
2022/01/14 08:01:49;;;;;;;26.80;13.50;;;;;;;-0.50;65.08;101151.97;105236;1270;75323;-73
2022/01/14 08:04:18;;;;;;;28.10;14.50;;;;;;;-0.37;64.15;101149.13;105210;1273;70978;-71
2022/01/14 08:06:50;;;;;;;33.50;14.60;;;;;;;-0.25;63.96;101142.89;105157;1271;71612;-71
2022/01/14 08:09:20;;;;;;;30.60;14.90;;;;;;;-0.11;63.57;101136.79;105186;1270;72383;-72
2022/01/14 08:11:50;;;;;;;31.60;14.60;;;;;;;0.04;62.91;101132.52;105168;1273;60349;-78
2022/01/14 08:14:20;;;;;;;25.20;13.60;;;;;;;0.17;62.57;101131.02;105202;1270;60809;-77
2022/01/14 08:16:49;;;;;;;31.80;15.10;;;;;;;0.32;62.08;101128.48;105299;1270;72162;-79
2022/01/14 08:19:18;;;;;;;30.10;14.20;;;;;;;0.46;61.52;101124.36;105229;1270;73102;-78
2022/01/14 08:21:47;;;;;;;28.80;14.70;;;;;;;0.59;62.42;101125.09;105165;1273;70594;-77
2022/01/14 08:24:16;;;;;;;35.10;16.70;;;;;;;0.69;62.32;101127.22;105283;1273;72826;-77
2022/01/14 08:26:45;;;;;;;36.10;16.20;;;;;;;0.79;61.27;101125.42;105398;1273;59624;-75
2022/01/14 08:29:14;;;;;;;31.10;13.70;;;;;;;0.90;61.90;101129.79;105437;1270;60206;-79
2022/01/14 08:31:43;;;;;;;40.10;15.30;;;;;;;1.02;61.56;101132.39;105347;1273;72943;-76
2022/01/14 08:34:12;;;;;;;34.90;13.70;;;;;;;1.17;61.49;101133.55;105294;1273;71032;-74
2022/01/14 08:36:41;;;;;;;38.10;17.70;;;;;;;1.30;60.58;101130.08;105296;1273;68014;-77
2022/01/14 08:39:11;;;;;;;24.90;13.10;;;;;;;1.51;59.60;101132.78;105118;1270;74041;-75
2022/01/14 08:41:40;;;;;;;13.60;6.50;;;;;;;1.74;58.31;101131.44;105283;1270;60214;-72
2022/01/14 08:44:08;;;;;;;21.90;10.70;;;;;;;1.94;57.89;101132.90;105183;1273;61475;-73
2022/01/14 08:46:55;;;;;;;22.80;12.90;;;;;;;2.12;57.73;101129.77;105136;1273;74129;-75
2022/01/14 08:49:24;;;;;;;22.10;11.70;;;;;;;2.24;57.50;101130.79;105322;1272;71718;-74
2022/01/14 08:51:52;;;;;;;23.90;12.90;;;;;;;2.44;56.51;101136.17;105199;1273;71477;-72
2022/01/14 08:54:21;;;;;;;20.60;9.80;;;;;;;2.56;56.94;101131.14;105213;1270;74843;-77
2022/01/14 08:56:50;;;;;;;31.00;17.10;;;;;;;2.66;55.78;101123.25;105228;1273;61308;-76
2022/01/14 08:59:20;;;;;;;29.30;13.50;;;;;;;2.75;56.34;101108.34;105262;1270;61284;-77
2022/01/14 09:01:49;;;;;;;29.60;14.50;;;;;;;2.83;55.83;101108.73;105260;1273;75273;-75
2022/01/14 09:04:18;;;;;;;22.40;11.10;;;;;;;2.97;54.65;101102.95;105276;1273;69567;-69
2022/01/14 09:06:47;;;;;;;17.00;8.90;;;;;;;3.05;54.54;101098.52;105383;1273;68885;-74
2022/01/14 09:09:17;;;;;;;20.30;11.30;;;;;;;3.14;53.80;101099.42;105291;1273;71393;-75
2022/01/14 09:11:46;;;;;;;19.40;10.90;;;;;;;3.20;53.82;101091.62;105272;1273;60652;-72
2022/01/14 09:14:18;;;;;;;13.30;7.60;;;;;;;3.28;53.81;101090.65;105200;1273;60229;-71
2022/01/14 09:16:48;;;;;;;15.30;6.90;;;;;;;3.38;52.48;101081.86;105338;1272;71833;-74
2022/01/14 09:19:17;;;;;;;14.60;7.70;;;;;;;3.41;52.00;101078.80;105352;1270;72398;-72
2022/01/14 09:21:46;;;;;;;20.60;9.40;;;;;;;3.48;52.30;101070.14;105392;1270;70712;-71
2022/01/14 09:24:24;;;;;;;21.40;10.80;;;;;;;3.53;51.74;101060.29;105296;1273;74362;-74
2022/01/14 09:26:53;;;;;;;13.20;7.80;;;;;;;3.61;51.76;101051.57;105355;1273;62378;-78
2022/01/14 09:29:21;;;;;;;18.10;9.10;;;;;;;3.61;50.92;101037.42;105375;1273;62014;-73
2022/01/14 09:31:51;;;;;;;20.60;9.50;;;;;;;3.72;51.35;101036.14;105432;1270;75941;-71
2022/01/14 09:34:20;;;;;;;14.30;8.10;;;;;;;3.81;50.80;101033.20;105347;1273;71151;-72
2022/01/14 09:36:49;;;;;;;14.90;8.00;;;;;;;3.81;50.32;101019.61;105301;1274;69280;-73
2022/01/14 09:39:18;;;;;;;16.60;9.00;;;;;;;3.89;51.06;101017.73;105403;1270;72068;-73
2022/01/14 09:41:47;;;;;;;14.70;7.50;;;;;;;4.00;50.45;101016.07;105307;1273;59636;-70
2022/01/14 09:44:20;;;;;;;17.00;7.80;;;;;;;4.08;49.87;101013.68;105331;1273;59876;-71
2022/01/14 09:46:53;;;;;;;15.50;8.20;;;;;;;4.14;50.39;101002.94;105408;1270;74665;-75
2022/01/14 09:49:23;;;;;;;12.20;6.90;;;;;;;4.21;50.00;100996.59;105378;1270;70869;-74
2022/01/14 09:51:52;;;;;;;18.10;9.40;;;;;;;4.28;48.86;100987.86;105347;1273;70272;-73
2022/01/14 09:54:21;;;;;;;21.90;9.80;;;;;;;4.34;49.35;100983.65;105344;1270;75283;-73
2022/01/14 09:56:50;;;;;;;18.60;9.20;;;;;;;4.44;48.21;100978.75;105255;1270;60115;-76
2022/01/14 09:59:20;;;;;;;14.50;8.10;;;;;;;4.45;48.19;100976.98;105234;1270;60587;-73
2022/01/14 10:01:49;;;;;;;14.20;7.40;;;;;;;4.46;48.68;100987.30;105280;1270;72996;-76
2022/01/14 10:04:22;;;;;;;12.30;7.60;;;;;;;4.49;48.79;100980.78;105228;1273;69748;-80
2022/01/14 10:06:57;;;;;;;12.20;7.60;;;;;;;4.56;47.90;100980.33;105243;1273;68236;-79
2022/01/14 10:09:33;;;;;;;13.30;6.90;;;;;;;4.61;48.40;100970.45;105387;1273;74070;-81
2022/01/14 10:12:15;;;;;;;12.00;7.20;;;;;;;4.64;47.85;100962.04;105217;1274;59786;-75
2022/01/14 10:14:56;;;;;;;13.80;7.70;;;;;;;4.64;47.74;100957.20;105140;1274;59575;-83
2022/01/14 10:17:38;;;;;;;13.70;7.60;;;;;;;4.60;47.45;100954.24;105369;1273;74636;-85
2022/01/14 10:20:11;;;;;;;12.30;7.30;;;;;;;4.60;47.91;100953.06;105299;1273;73200;-81
2022/01/14 10:22:46;;;;;;;15.80;8.80;;;;;;;4.63;48.55;100941.72;105312;1273;71216;-85
2022/01/14 10:25:20;;;;;;;18.20;10.30;;;;;;;4.69;49.05;100946.78;105381;1273;75196;-84
2022/01/14 10:27:52;;;;;;;18.80;8.80;;;;;;;4.74;48.52;100938.81;105352;1273;59653;-81
2022/01/14 10:30:25;;;;;;;18.50;10.10;;;;;;;4.70;48.31;100947.42;105282;1274;59520;-76
2022/01/14 10:32:56;;;;;;;;;;;;;;;4.70;48.72;100941.90;105285;1273;73022;-83
2022/01/14 10:35:31;;;;;;;20.00;11.40;;;;;;;4.69;49.00;100934.36;105439;1273;70552;-83
2022/01/14 10:38:04;;;;;;;25.00;12.30;;;;;;;4.76;49.83;100924.73;105292;1270;70768;-85
2022/01/14 10:40:38;;;;;;;24.50;13.00;;;;;;;4.96;49.55;100921.09;105294;1273;72545;-83
2022/01/14 10:43:15;;;;;;;21.10;12.40;;;;;;;5.12;49.15;100923.44;105227;1273;59886;-83
2022/01/14 10:45:56;;;;;;;22.80;12.30;;;;;;;5.28;49.85;100922.69;105219;1273;60102;-80
2022/01/14 10:48:32;;;;;;;22.70;13.10;;;;;;;5.44;49.16;100911.25;105279;1273;74422;-79
2022/01/14 10:51:08;;;;;;;20.20;11.20;;;;;;;5.56;48.58;100899.05;105352;1273;72838;-78
2022/01/14 10:54:10;;;;;;;19.80;11.00;;;;;;;5.72;48.31;100894.85;105196;1273;70914;-82
2022/01/14 10:56:39;;;;;;;25.30;12.70;;;;;;;5.85;48.42;100880.91;105159;1273;71928;-77
2022/01/14 10:59:08;;;;;;;22.10;12.50;;;;;;;5.96;47.87;100877.41;105348;1274;59716;-75
2022/01/14 11:01:38;;;;;;;20.20;11.30;;;;;;;5.96;47.77;100877.39;105345;1273;61786;-72
2022/01/14 11:04:14;;;;;;;19.40;11.20;;;;;;;6.01;47.81;100869.90;105127;1273;74528;-74
2022/01/14 11:06:43;;;;;;;19.80;10.50;;;;;;;6.06;48.02;100852.86;105112;1273;70047;-77
2022/01/14 11:09:18;;;;;;;19.80;11.30;;;;;;;6.25;47.42;100845.54;105333;1273;68880;-73
2022/01/14 11:11:49;;;;;;;24.40;11.90;;;;;;;6.29;47.45;100823.86;105213;1273;75132;-73
2022/01/14 11:14:19;;;;;;;20.80;11.30;;;;;;;6.30;47.51;100818.27;105136;1273;59570;-73
2022/01/14 11:16:48;;;;;;;23.40;13.10;;;;;;;6.35;47.64;100812.13;105184;1273;60644;-75
2022/01/14 11:19:20;;;;;;;22.10;10.30;;;;;;;6.56;47.40;100805.09;105136;1273;73569;-76
2022/01/14 11:24:39;;;;;;;22.00;11.90;;;;;;;6.72;46.91;100794.21;105260;1273;70832;-76
2022/01/14 11:27:13;;;;;;;19.50;10.50;;;;;;;6.84;46.77;100790.58;105354;1271;74123;-71
2022/01/14 11:29:47;;;;;;;18.80;12.10;;;;;;;6.76;46.64;100775.98;105281;1273;59764;-70
2022/01/14 11:32:16;;;;;;;20.60;11.60;;;;;;;6.89;46.54;100758.63;105325;1273;59584;-78
2022/01/14 11:34:47;;;;;;;22.80;11.80;;;;;;;6.95;46.44;100752.09;105392;1273;74091;-73
2022/01/14 11:37:29;;;;;;;19.20;11.20;;;;;;;7.08;46.47;100753.95;105459;1271;69729;-76
2022/01/14 11:40:12;;;;;;;22.10;11.70;;;;;;;7.26;46.12;100739.53;105978;1273;70810;-74
2022/01/14 11:42:59;;;;;;;;;;;;;;;7.41;46.23;100742.64;105319;1272;72524;-74
2022/01/14 11:45:47;;;;;;;21.00;12.50;;;;;;;7.44;45.82;100743.51;105169;1273;60037;-73
2022/01/14 11:48:40;;;;;;;27.80;13.40;;;;;;;7.43;45.43;100740.63;105146;1273;60932;-73
2022/01/14 11:51:15;;;;;;;16.40;9.80;;;;;;;7.69;44.34;100745.50;105322;1273;75055;-75
2022/01/14 11:53:53;;;;;;;20.60;12.70;;;;;;;7.59;44.20;100749.08;105133;1273;72291;-72
2022/01/14 11:56:31;;;;;;;20.00;11.70;;;;;;;7.81;43.28;100740.98;105163;1273;71638;-77
2022/01/14 11:59:18;;;;;;;21.10;13.30;;;;;;;7.65;44.09;100726.80;105076;1273;73070;-75
2022/01/14 12:01:56;;;;;;;22.00;12.50;;;;;;;7.62;44.19;100718.00;105056;1273;59670;-73